Time;durP1;ratioP1;P1;durP2;ratioP2;P2;SDS_P1;SDS_P2;PMS_P1;PMS_P2;Temp;Humidity;BMP_temperature;BMP_pressure;BME280_temperature;BME280_humidity;BME280_pressure;Samples;Min_cycle;Max_cycle;Signal;HPM_P1;HPM_P2
2023/12/30 00:00:06;;;;;;;17.10;12.70;;;;;;;4.91;84.46;99400.31;108891;1253;71422;-77
2023/12/30 00:02:49;;;;;;;20.90;14.20;;;;;;;4.85;84.67;99398.39;107838;1252;60929;-77
2023/12/30 00:05:16;;;;;;;18.90;13.50;;;;;;;4.88;84.64;99404.22;108141;1252;59012;-77
2023/12/30 00:07:44;;;;;;;16.50;13.50;;;;;;;4.89;84.39;99400.11;107805;1255;74397;-79
2023/12/30 00:10:12;;;;;;;17.10;12.90;;;;;;;4.83;84.62;99398.38;106134;1253;70360;-80
2023/12/30 00:12:40;;;;;;;19.60;14.30;;;;;;;4.83;84.44;99396.26;106151;1253;72712;-83
2023/12/30 00:15:08;;;;;;;19.80;14.40;;;;;;;4.83;84.46;99394.13;107087;1253;60339;-81
2023/12/30 00:17:35;;;;;;;18.80;13.20;;;;;;;4.76;84.67;99390.78;106725;1252;60475;-80
2023/12/30 00:20:05;;;;;;;15.90;12.10;;;;;;;4.71;84.77;99391.58;106276;1254;73387;-81
2023/12/30 00:22:33;;;;;;;18.00;13.20;;;;;;;4.75;84.62;99390.65;106196;1253;68072;-84
2023/12/30 00:25:00;;;;;;;16.80;12.80;;;;;;;4.71;84.66;99393.50;106187;1255;72670;-82
2023/12/30 00:27:28;;;;;;;16.20;12.80;;;;;;;4.62;85.03;99396.97;106436;1259;60482;-81
2023/12/30 00:29:55;;;;;;;17.90;13.10;;;;;;;4.61;85.27;99398.80;106191;1253;60413;-82
2023/12/30 00:32:23;;;;;;;16.80;13.40;;;;;;;4.63;85.20;99399.30;106059;1254;75035;-82
2023/12/30 00:34:51;;;;;;;19.20;13.70;;;;;;;4.64;84.98;99403.23;106257;1253;70671;-83
2023/12/30 00:37:21;;;;;;;20.70;13.30;;;;;;;4.56;85.19;99399.90;106335;1253;71116;-81
2023/12/30 00:39:50;;;;;;;15.60;12.10;;;;;;;4.51;85.37;99412.77;107694;1252;61053;-81
2023/12/30 00:42:18;;;;;;;18.10;12.60;;;;;;;4.59;85.37;99407.23;108235;1253;58778;-80
2023/12/30 00:44:46;;;;;;;22.00;13.50;;;;;;;4.62;84.99;99404.64;106121;1252;72683;-79
2023/12/30 00:47:14;;;;;;;18.40;13.10;;;;;;;4.55;85.07;99401.76;108499;1252;69582;-82
2023/12/30 00:51:16;;;;;;;17.70;13.50;;;;;;;4.54;85.34;99402.36;105332;1294;599513;-80
2023/12/30 00:53:43;;;;;;;15.70;12.00;;;;;;;4.62;85.18;99399.77;106551;1270;59750;-80
2023/12/30 00:56:11;;;;;;;15.60;12.50;;;;;;;4.63;85.22;99400.91;106128;1269;59235;-82
2023/12/30 00:58:39;;;;;;;14.60;11.80;;;;;;;4.56;85.15;99398.85;106046;1257;71059;-80
2023/12/30 01:01:07;;;;;;;16.70;12.50;;;;;;;4.52;85.23;99397.13;107049;1257;74084;-80
2023/12/30 01:03:35;;;;;;;18.60;12.50;;;;;;;4.59;85.26;99399.84;107411;1257;71866;-80
2023/12/30 01:06:03;;;;;;;16.40;12.40;;;;;;;4.61;85.13;99402.78;106258;1252;176060;-82
2023/12/30 01:08:30;;;;;;;15.90;13.20;;;;;;;4.57;85.07;99399.32;106096;1254;59346;-80
2023/12/30 01:10:58;;;;;;;16.80;12.20;;;;;;;4.51;85.22;99402.94;105954;1252;72008;-81
2023/12/30 01:13:25;;;;;;;15.70;11.80;;;;;;;4.57;85.22;99402.45;105909;1254;72967;-79
2023/12/30 01:15:53;;;;;;;15.80;12.10;;;;;;;4.62;84.94;99403.06;105997;1260;72615;-79
2023/12/30 01:18:20;;;;;;;15.80;12.30;;;;;;;4.58;84.84;99406.94;105993;1257;60543;-80
2023/12/30 01:20:48;;;;;;;15.10;12.10;;;;;;;4.56;84.97;99400.63;106085;1257;62073;-81
2023/12/30 01:23:15;;;;;;;16.80;13.10;;;;;;;4.64;84.80;99401.13;106037;1254;73220;-78
2023/12/30 01:25:43;;;;;;;17.80;12.40;;;;;;;4.64;84.64;99405.31;105941;1254;69228;-82
2023/12/30 01:28:11;;;;;;;18.10;13.80;;;;;;;4.52;84.46;99399.79;106062;1258;73491;-80
2023/12/30 01:30:40;;;;;;;16.40;12.60;;;;;;;4.51;84.82;99399.48;106063;1254;61213;-80
2023/12/30 01:33:08;;;;;;;14.80;11.40;;;;;;;4.56;84.60;99405.58;106226;1254;59675;-80
2023/12/30 01:35:36;;;;;;;15.90;11.70;;;;;;;4.55;84.69;99399.29;106101;1254;71860;-82
2023/12/30 01:38:03;;;;;;;15.90;12.40;;;;;;;4.49;84.76;99395.47;105897;1254;70410;-80
2023/12/30 01:40:33;;;;;;;16.70;12.40;;;;;;;4.43;84.97;99394.74;109012;1253;73628;-79
2023/12/30 01:43:02;;;;;;;13.90;11.40;;;;;;;4.49;84.93;99384.53;109415;1254;59953;-79
2023/12/30 01:45:31;;;;;;;16.30;12.60;;;;;;;4.55;84.84;99383.54;106716;1259;59628;-79
2023/12/30 01:47:59;;;;;;;15.70;12.40;;;;;;;4.50;84.78;99387.82;106659;1253;72000;-80
2023/12/30 01:50:27;;;;;;;15.70;11.10;;;;;;;4.48;84.99;99389.57;106276;1252;70190;-79
2023/12/30 01:52:55;;;;;;;16.00;11.90;;;;;;;4.55;84.76;99386.16;106209;1254;71268;-80
2023/12/30 01:55:23;;;;;;;17.20;11.70;;;;;;;4.58;84.56;99392.23;106044;1256;60850;-79
2023/12/30 01:57:50;;;;;;;16.60;11.90;;;;;;;4.52;84.60;99387.85;106002;1256;59638;-81
2023/12/30 02:00:19;;;;;;;13.00;11.50;;;;;;;4.49;84.72;99387.94;106093;1255;73083;-77
2023/12/30 02:02:49;;;;;;;14.00;10.80;;;;;;;4.55;84.90;99387.43;106978;1253;69888;-78
2023/12/30 02:05:17;;;;;;;16.50;11.40;;;;;;;4.53;84.88;99390.38;107572;1254;71269;-78
2023/12/30 02:07:45;;;;;;;16.20;11.20;;;;;;;4.50;84.78;99386.27;107304;1254;59696;-78
2023/12/30 02:10:13;;;;;;;15.30;11.10;;;;;;;4.55;84.63;99382.98;106402;1253;59368;-76
2023/12/30 02:12:41;;;;;;;14.60;11.30;;;;;;;4.61;84.50;99388.47;107017;1254;71850;-77
2023/12/30 02:15:13;;;;;;;14.50;11.30;;;;;;;4.56;84.36;99386.45;107028;1254;70545;-78
2023/12/30 02:17:40;;;;;;;15.20;12.10;;;;;;;4.49;84.69;99392.45;106097;1259;71650;-77
2023/12/30 02:20:09;;;;;;;16.70;11.70;;;;;;;4.50;84.85;99396.58;105997;1254;59773;-77
2023/12/30 02:22:44;;;;;;;15.90;11.60;;;;;;;4.57;84.52;99399.48;106092;1255;60477;-78
2023/12/30 02:25:16;;;;;;;16.90;12.20;;;;;;;4.51;84.54;99399.09;105947;1255;73775;-79
2023/12/30 02:27:44;;;;;;;14.20;11.20;;;;;;;4.47;84.89;99397.60;106095;1256;70128;-77
2023/12/30 02:30:12;;;;;;;17.20;12.20;;;;;;;4.51;84.92;99405.75;106492;1254;72884;-78
2023/12/30 02:32:40;;;;;;;16.30;11.90;;;;;;;4.52;84.60;99401.48;107649;1252;59593;-79
2023/12/30 02:35:08;;;;;;;15.50;12.70;;;;;;;4.45;84.71;99402.11;108825;1254;59701;-78
2023/12/30 02:37:35;;;;;;;15.70;11.90;;;;;;;4.45;84.87;99403.14;107808;1253;71596;-78
2023/12/30 02:40:03;;;;;;;18.90;12.10;;;;;;;4.53;84.48;99399.35;106444;1254;70189;-79
2023/12/30 02:42:31;;;;;;;16.40;12.00;;;;;;;4.50;84.46;99402.39;106299;1254;73293;-79
2023/12/30 02:44:58;;;;;;;15.10;11.40;;;;;;;4.42;84.75;99400.41;106140;1254;60055;-80
2023/12/30 02:47:26;;;;;;;15.10;11.10;;;;;;;4.34;84.95;99400.64;106168;1254;60049;-77
2023/12/30 02:49:54;;;;;;;14.40;10.90;;;;;;;4.39;84.93;99395.45;106384;1252;71867;-79
2023/12/30 02:52:22;;;;;;;13.50;11.20;;;;;;;4.41;84.97;99400.20;106260;1254;68989;-76
2023/12/30 02:54:50;;;;;;;15.70;11.30;;;;;;;4.34;85.22;99403.80;106013;1258;71366;-77
2023/12/30 02:57:17;;;;;;;13.40;10.10;;;;;;;4.34;85.40;99400.00;107787;1254;60849;-78
2023/12/30 02:59:45;;;;;;;14.70;10.70;;;;;;;4.39;85.08;99402.48;107970;1254;61162;-78
2023/12/30 03:02:13;;;;;;;13.50;10.90;;;;;;;4.36;85.04;99409.94;106872;1255;73068;-80
2023/12/30 03:04:40;;;;;;;15.90;11.90;;;;;;;4.32;85.29;99403.98;106152;1254;70321;-78
2023/12/30 03:07:08;;;;;;;15.30;11.70;;;;;;;4.38;85.37;99398.17;106325;1252;74798;-79
2023/12/30 03:09:36;;;;;;;12.70;11.10;;;;;;;4.43;85.14;99397.92;106439;1256;59682;-77
2023/12/30 03:12:04;;;;;;;15.20;11.70;;;;;;;4.38;84.99;99403.31;106082;1256;59637;-80
2023/12/30 03:14:32;;;;;;;15.40;11.30;;;;;;;4.36;85.38;99397.17;106175;1256;73092;-78
2023/12/30 03:16:59;;;;;;;16.10;12.00;;;;;;;4.42;85.03;99399.08;106744;1259;69628;-77
2023/12/30 03:19:27;;;;;;;15.50;11.60;;;;;;;4.42;85.05;99396.43;106627;1256;73369;-77
2023/12/30 03:21:54;;;;;;;14.50;11.60;;;;;;;4.35;85.12;99394.82;106080;1253;59583;-79
2023/12/30 03:24:22;;;;;;;16.10;10.50;;;;;;;4.38;85.37;99399.11;106207;1256;59623;-81
2023/12/30 03:26:50;;;;;;;13.80;11.20;;;;;;;4.40;85.17;99401.89;108444;1253;73045;-80
2023/12/30 03:29:17;;;;;;;14.30;10.50;;;;;;;4.37;85.04;99394.29;109568;1252;68973;-80
2023/12/30 03:31:45;;;;;;;14.10;11.20;;;;;;;4.38;85.20;99396.11;108127;1253;71217;-81
2023/12/30 03:34:13;;;;;;;17.20;11.70;;;;;;;4.47;85.06;99399.15;107278;1254;60121;-80
2023/12/30 03:36:40;;;;;;;14.10;11.00;;;;;;;4.48;85.11;99396.05;107125;1254;60005;-80
2023/12/30 03:39:08;;;;;;;13.90;10.90;;;;;;;4.45;84.83;99389.55;106513;1254;71911;-81
2023/12/30 03:41:36;;;;;;;13.60;11.20;;;;;;;4.50;85.02;99389.77;106326;1259;69963;-81
2023/12/30 03:44:03;;;;;;;13.10;10.70;;;;;;;4.53;84.91;99386.13;106661;1254;72613;-81
2023/12/30 03:46:31;;;;;;;14.00;10.60;;;;;;;4.49;84.96;99383.84;106955;1254;59702;-81
2023/12/30 03:48:58;;;;;;;13.60;10.50;;;;;;;4.47;85.04;99377.94;106336;1254;59553;-81
2023/12/30 03:51:26;;;;;;;13.80;10.90;;;;;;;4.55;84.88;99384.23;106264;1253;72108;-80
2023/12/30 03:53:54;;;;;;;12.60;10.50;;;;;;;4.56;84.70;99386.27;106010;1253;69978;-80
2023/12/30 03:56:21;;;;;;;18.60;10.60;;;;;;;4.50;84.80;99381.86;105939;1254;72727;-78
2023/12/30 03:58:49;;;;;;;12.10;9.90;;;;;;;4.48;84.87;99386.05;106193;1256;59817;-77
2023/12/30 04:01:16;;;;;;;13.60;9.70;;;;;;;4.56;85.07;99392.04;106062;1254;59789;-77
2023/12/30 04:03:46;;;;;;;14.80;11.40;;;;;;;4.54;84.71;99394.50;106327;1254;73173;-81
2023/12/30 04:06:18;;;;;;;12.90;10.10;;;;;;;4.48;84.76;99393.41;107164;1253;68797;-79
2023/12/30 04:08:46;;;;;;;17.40;11.50;;;;;;;4.52;84.77;99392.89;106362;1254;71511;-80
2023/12/30 04:11:13;;;;;;;15.40;11.80;;;;;;;4.55;84.59;99387.72;106175;1254;60077;-79
2023/12/30 04:13:41;;;;;;;14.30;11.20;;;;;;;4.48;84.76;99387.66;105910;1254;62153;-79
2023/12/30 04:16:09;;;;;;;12.50;10.00;;;;;;;4.44;84.88;99380.96;106116;1254;72924;-79
2023/12/30 04:18:36;;;;;;;15.40;11.00;;;;;;;4.49;84.82;99384.79;106121;1254;70271;-79
2023/12/30 04:21:04;;;;;;;15.60;11.90;;;;;;;4.45;84.94;99383.89;109440;1253;71505;-79
2023/12/30 04:23:32;;;;;;;12.50;10.30;;;;;;;4.38;85.04;99382.95;108893;1256;59662;-77
2023/12/30 04:25:59;;;;;;;15.50;11.40;;;;;;;4.42;85.19;99384.83;107292;1254;61019;-78
2023/12/30 04:28:27;;;;;;;15.70;12.30;;;;;;;4.45;84.99;99383.36;108306;1253;72546;-77
2023/12/30 04:30:54;;;;;;;15.20;12.00;;;;;;;4.39;85.19;99385.46;108414;1254;70176;-80
2023/12/30 04:33:22;;;;;;;15.50;11.60;;;;;;;4.31;85.30;99387.09;108556;1254;71334;-81
2023/12/30 04:35:50;;;;;;;15.00;11.20;;;;;;;4.30;85.46;99385.06;108329;1253;59836;-78
2023/12/30 04:38:18;;;;;;;16.80;12.90;;;;;;;4.37;85.56;99383.08;108100;1252;59002;-78
2023/12/30 04:40:49;;;;;;;17.30;12.40;;;;;;;4.34;85.36;99387.82;108149;1254;71806;-80
2023/12/30 04:43:17;;;;;;;13.70;10.70;;;;;;;4.28;85.62;99384.17;108780;1253;68738;-79
2023/12/30 04:45:44;;;;;;;17.50;12.30;;;;;;;4.31;85.67;99387.77;108769;1252;71563;-79
2023/12/30 04:48:13;;;;;;;14.90;11.60;;;;;;;4.34;85.33;99379.05;108535;1253;59639;-78
2023/12/30 04:50:43;;;;;;;16.10;11.90;;;;;;;4.32;85.61;99392.08;108550;1253;59218;-77
2023/12/30 04:53:10;;;;;;;15.60;12.00;;;;;;;4.25;85.68;99387.05;108792;1253;73168;-79
2023/12/30 04:55:38;;;;;;;14.00;11.20;;;;;;;4.31;85.53;99387.29;108626;1254;68985;-78
2023/12/30 04:58:06;;;;;;;13.90;12.10;;;;;;;4.31;85.63;99388.96;108766;1254;70582;-78
2023/12/30 05:00:34;;;;;;;14.80;11.90;;;;;;;4.25;85.54;99382.21;108238;1253;60357;-79
2023/12/30 05:03:01;;;;;;;14.40;11.60;;;;;;;4.25;85.68;99389.38;107843;1253;60508;-79
2023/12/30 05:05:30;;;;;;;23.20;18.10;;;;;;;4.35;85.45;99383.91;108778;1254;72323;-79
2023/12/30 05:07:57;;;;;;;23.50;18.60;;;;;;;4.36;85.13;99380.33;108756;1253;69050;-79
2023/12/30 05:10:25;;;;;;;18.70;14.10;;;;;;;4.31;85.18;99381.45;108112;1254;71584;-78
2023/12/30 05:12:52;;;;;;;23.10;16.50;;;;;;;4.37;85.14;99374.97;108501;1252;59718;-79
2023/12/30 05:15:20;;;;;;;20.20;15.80;;;;;;;4.39;84.86;99377.77;109672;1252;58921;-80
2023/12/30 05:17:48;;;;;;;21.60;15.30;;;;;;;4.33;84.98;99369.53;108898;1252;72846;-78
2023/12/30 05:20:17;;;;;;;17.30;13.10;;;;;;;4.35;85.05;99366.21;108856;1254;71051;-77
2023/12/30 05:22:44;;;;;;;23.70;16.60;;;;;;;4.38;84.76;99364.01;108842;1253;71445;-78
2023/12/30 05:25:13;;;;;;;22.50;16.80;;;;;;;4.33;84.70;99360.57;108286;1253;59147;-78
2023/12/30 05:27:40;;;;;;;22.60;16.70;;;;;;;4.28;85.24;99363.69;108277;1252;60443;-76
2023/12/30 05:30:08;;;;;;;24.90;18.70;;;;;;;4.33;84.77;99366.35;108479;1253;72301;-76
2023/12/30 05:32:36;;;;;;;21.90;16.60;;;;;;;4.32;85.09;99373.64;108615;1253;69055;-77
2023/12/30 05:35:04;;;;;;;29.80;20.20;;;;;;;4.26;85.17;99376.61;108564;1254;71343;-78
2023/12/30 05:37:32;;;;;;;44.80;26.60;;;;;;;4.27;85.07;99382.16;108921;1252;61712;-81
2023/12/30 05:40:00;;;;;;;36.30;22.10;;;;;;;4.34;84.92;99382.61;108444;1252;60482;-79
2023/12/30 05:42:28;;;;;;;41.90;23.50;;;;;;;4.32;84.93;99382.05;108411;1253;72822;-80
2023/12/30 05:44:55;;;;;;;31.10;19.40;;;;;;;4.26;84.94;99391.52;108446;1253;72634;-76
2023/12/30 05:47:23;;;;;;;28.50;17.60;;;;;;;4.33;84.93;99387.95;108208;1255;71412;-79
2023/12/30 05:49:51;;;;;;;27.70;16.30;;;;;;;4.37;84.90;99394.44;107761;1253;59468;-78
2023/12/30 05:52:18;;;;;;;34.30;19.40;;;;;;;4.35;84.82;99393.05;108251;1253;61297;-77
2023/12/30 05:54:46;;;;;;;28.20;17.70;;;;;;;4.40;84.81;99388.57;108143;1253;74795;-78
2023/12/30 05:57:13;;;;;;;33.00;19.80;;;;;;;4.46;84.45;99389.79;108400;1253;68768;-78
2023/12/30 05:59:41;;;;;;;26.20;16.70;;;;;;;4.41;84.66;99395.48;108414;1253;70390;-76
2023/12/30 06:02:10;;;;;;;25.20;16.20;;;;;;;4.37;84.90;99401.29;109037;1253;60956;-79
2023/12/30 06:04:41;;;;;;;25.90;18.40;;;;;;;4.46;84.60;99400.14;109377;1252;61022;-79
2023/12/30 06:07:08;;;;;;;20.10;14.70;;;;;;;4.51;84.36;99402.42;109521;1253;72496;-77
2023/12/30 06:09:36;;;;;;;29.10;17.40;;;;;;;4.48;84.28;99399.06;109297;1253;69291;-80
2023/12/30 06:12:04;;;;;;;20.90;13.80;;;;;;;4.46;84.46;99400.13;109648;1254;71346;-80
2023/12/30 06:15:41;;;;;;;17.60;13.10;;;;;;;4.57;84.21;99400.53;106215;1285;599190;-78
2023/12/30 06:18:08;;;;;;;20.00;12.90;;;;;;;4.52;84.40;99396.58;107376;1266;60093;-78
2023/12/30 06:20:36;;;;;;;15.30;11.20;;;;;;;4.49;84.41;99391.59;107472;1267;59335;-81
2023/12/30 06:23:03;;;;;;;17.60;12.50;;;;;;;4.55;84.14;99392.31;108080;1266;70168;-82
2023/12/30 06:25:32;;;;;;;15.40;12.00;;;;;;;4.56;84.27;99392.42;108198;1267;69018;-79
2023/12/30 06:28:02;;;;;;;16.00;12.00;;;;;;;4.51;84.35;99403.66;108204;1267;71472;-78
2023/12/30 06:30:30;;;;;;;16.10;12.60;;;;;;;4.53;84.26;99399.78;108069;1263;185946;-79
2023/12/30 06:32:59;;;;;;;19.10;12.00;;;;;;;4.61;84.09;99401.06;108597;1262;58776;-83
2023/12/30 06:35:27;;;;;;;19.20;13.00;;;;;;;4.55;83.88;99410.36;108608;1260;72989;-80
2023/12/30 06:37:54;;;;;;;15.10;12.40;;;;;;;4.54;84.02;99411.86;108396;1260;69050;-79
2023/12/30 06:40:22;;;;;;;15.30;12.10;;;;;;;4.58;83.98;99404.70;107970;1267;72272;-79
2023/12/30 06:42:50;;;;;;;16.10;12.70;;;;;;;4.54;83.86;99402.39;108248;1260;59483;-82
2023/12/30 06:45:17;;;;;;;16.60;12.80;;;;;;;4.45;84.15;99408.95;108224;1261;60085;-79
2023/12/30 06:47:45;;;;;;;19.10;12.20;;;;;;;4.44;84.48;99412.38;108178;1262;72181;-81
2023/12/30 06:50:13;;;;;;;19.50;12.30;;;;;;;4.51;84.32;99408.30;108553;1261;71277;-80
2023/12/30 06:52:41;;;;;;;17.20;13.80;;;;;;;4.51;84.13;99415.30;108727;1260;71244;-82
2023/12/30 06:55:11;;;;;;;18.70;14.20;;;;;;;4.46;84.44;99416.56;108809;1261;58004;-84
2023/12/30 06:57:49;;;;;;;19.60;14.50;;;;;;;4.47;84.64;99417.90;108945;1262;59291;-84
2023/12/30 07:00:17;;;;;;;27.10;16.90;;;;;;;4.55;84.30;99412.34;108945;1261;73821;-81
2023/12/30 07:02:45;;;;;;;24.40;17.20;;;;;;;4.56;84.27;99408.05;108916;1261;71048;-84
2023/12/30 07:05:12;;;;;;;20.10;15.80;;;;;;;4.51;84.55;99409.84;108946;1260;71279;-83
2023/12/30 07:07:40;;;;;;;19.70;13.80;;;;;;;4.50;84.49;99410.06;109148;1256;59595;-84
2023/12/30 07:10:08;;;;;;;18.30;14.10;;;;;;;4.60;84.36;99410.48;109177;1257;58817;-81
2023/12/30 07:12:36;;;;;;;18.90;14.70;;;;;;;4.63;84.22;99414.34;109291;1260;72090;-83
2023/12/30 07:15:04;;;;;;;19.50;14.00;;;;;;;4.61;84.08;99412.61;109261;1257;68898;-84
2023/12/30 07:17:32;;;;;;;19.50;13.40;;;;;;;4.65;84.28;99413.67;109196;1256;71427;-85
2023/12/30 07:20:00;;;;;;;16.30;12.70;;;;;;;4.76;83.83;99414.09;109241;1256;59725;-85
2023/12/30 07:22:27;;;;;;;16.90;13.10;;;;;;;4.80;83.60;99417.22;109306;1256;58880;-86
2023/12/30 07:24:55;;;;;;;16.70;11.70;;;;;;;4.79;83.80;99410.98;109406;1254;72047;-84
2023/12/30 07:27:23;;;;;;;16.20;12.80;;;;;;;4.89;83.34;99410.26;109208;1256;68756;-84
2023/12/30 07:29:51;;;;;;;15.20;12.70;;;;;;;4.96;83.05;99415.80;108483;1257;70693;-82
2023/12/30 07:32:18;;;;;;;17.40;12.80;;;;;;;4.96;83.09;99421.06;108132;1257;59605;-84
2023/12/30 07:34:46;;;;;;;18.30;12.20;;;;;;;4.95;83.19;99415.66;108242;1256;61154;-85
2023/12/30 07:37:14;;;;;;;18.70;15.00;;;;;;;5.05;82.85;99415.48;108302;1255;72366;-84
2023/12/30 07:39:41;;;;;;;25.70;17.00;;;;;;;5.06;82.61;99412.39;108196;1257;70375;-85
2023/12/30 07:42:08;;;;;;;35.60;21.60;;;;;;;5.03;82.84;99416.20;107745;1257;71637;-85
2023/12/30 07:44:37;;;;;;;28.10;18.90;;;;;;;5.08;82.77;99418.72;107537;1257;61014;-84
2023/12/30 07:47:06;;;;;;;25.80;16.50;;;;;;;5.14;82.28;99418.53;108574;1256;59510;-83
2023/12/30 07:49:35;;;;;;;32.80;21.00;;;;;;;5.11;82.56;99415.12;108484;1254;71318;-86
2023/12/30 07:52:03;;;;;;;25.50;16.20;;;;;;;5.12;82.72;99419.08;107972;1251;69163;-84
2023/12/30 07:54:31;;;;;;;34.10;20.90;;;;;;;5.23;82.36;99417.02;108290;1253;71394;-84
2023/12/30 07:56:59;;;;;;;38.50;20.70;;;;;;;5.24;82.27;99423.90;108287;1254;60619;-83
2023/12/30 07:59:27;;;;;;;32.00;19.90;;;;;;;5.23;82.35;99422.58;108333;1253;59374;-81
2023/12/30 08:01:56;;;;;;;22.50;15.80;;;;;;;5.33;82.13;99421.17;109443;1253;71538;-84
2023/12/30 08:04:24;;;;;;;22.20;15.50;;;;;;;5.44;81.87;99422.77;109323;1253;69023;-82
2023/12/30 08:09:48;;;;;;;27.00;18.70;;;;;;;5.53;81.59;99413.18;104609;1295;599491;-84
2023/12/30 08:12:15;;;;;;;23.70;17.10;;;;;;;5.65;81.32;99414.83;106854;1266;59839;-82
2023/12/30 08:14:43;;;;;;;19.80;14.30;;;;;;;5.81;80.66;99414.02;108615;1263;60069;-82
2023/12/30 08:17:10;;;;;;;21.40;16.00;;;;;;;5.88;80.38;99413.15;108725;1263;71303;-83
2023/12/30 08:19:38;;;;;;;24.50;16.60;;;;;;;5.95;80.18;99419.05;108646;1263;68944;-85
2023/12/30 08:22:05;;;;;;;24.10;16.40;;;;;;;6.02;79.60;99420.86;108675;1263;71185;-79
2023/12/30 08:24:33;;;;;;;20.90;14.60;;;;;;;6.15;79.07;99411.91;108525;1261;152459;-83
2023/12/30 08:27:01;;;;;;;20.10;15.60;;;;;;;6.26;78.79;99412.04;108262;1260;59236;-82
2023/12/30 08:29:28;;;;;;;33.20;22.10;;;;;;;6.26;78.40;99415.74;107194;1268;70784;-83
2023/12/30 08:31:55;;;;;;;22.60;14.40;;;;;;;6.24;78.46;99415.24;107494;1263;69364;-85
2023/12/30 08:34:27;;;;;;;19.20;15.40;;;;;;;6.31;78.45;99409.33;107511;1262;71778;-85
2023/12/30 08:36:55;;;;;;;18.50;13.70;;;;;;;6.40;78.05;99403.13;107510;1260;59692;-82
2023/12/30 08:39:23;;;;;;;18.50;14.60;;;;;;;6.41;77.72;99391.30;107381;1260;60058;-84
2023/12/30 08:41:51;;;;;;;24.20;16.10;;;;;;;6.42;77.80;99388.88;107449;1257;74138;-84
2023/12/30 08:44:18;;;;;;;24.50;15.20;;;;;;;6.45;77.90;99385.02;107484;1257;69094;-80
2023/12/30 08:46:46;;;;;;;26.50;17.70;;;;;;;6.61;77.38;99385.33;107287;1257;70817;-81
2023/12/30 08:49:14;;;;;;;25.40;16.30;;;;;;;6.68;77.12;99377.70;107659;1257;59532;-83
2023/12/30 08:51:41;;;;;;;21.90;14.90;;;;;;;6.69;77.00;99369.66;108598;1257;59717;-82
2023/12/30 08:54:09;;;;;;;21.60;14.30;;;;;;;6.71;76.99;99367.36;108995;1256;71663;-83
2023/12/30 08:56:37;;;;;;;17.10;13.30;;;;;;;6.79;76.73;99371.86;108851;1253;69344;-80
2023/12/30 08:59:04;;;;;;;18.10;14.10;;;;;;;6.93;76.11;99367.55;108326;1259;70393;-81
2023/12/30 09:01:32;;;;;;;20.60;14.90;;;;;;;6.94;76.14;99364.55;108143;1254;59640;-78
2023/12/30 09:04:00;;;;;;;19.00;13.90;;;;;;;6.96;75.99;99371.77;107780;1254;59309;-78
2023/12/30 09:06:28;;;;;;;21.70;14.10;;;;;;;6.92;75.90;99377.83;107808;1254;71337;-80
2023/12/30 09:08:56;;;;;;;17.20;13.00;;;;;;;6.96;75.94;99378.13;108516;1254;70471;-76
2023/12/30 09:11:24;;;;;;;20.10;16.10;;;;;;;7.02;75.54;99379.23;107953;1257;71445;-84
2023/12/30 09:13:56;;;;;;;25.80;17.10;;;;;;;7.00;75.69;99364.91;108381;1254;61025;-80
2023/12/30 09:16:24;;;;;;;25.40;16.20;;;;;;;6.96;75.69;99356.46;106028;1260;60034;-83
2023/12/30 09:18:53;;;;;;;25.10;15.50;;;;;;;6.96;76.07;99344.52;106320;1254;73252;-81
2023/12/30 09:21:21;;;;;;;24.60;17.90;;;;;;;7.09;75.62;99357.45;107174;1254;70328;-79
2023/12/30 09:23:50;;;;;;;22.60;17.20;;;;;;;7.19;75.31;99348.87;107492;1254;71296;-80
2023/12/30 09:26:19;;;;;;;23.70;16.80;;;;;;;7.22;75.38;99343.13;107628;1253;60231;-78
2023/12/30 09:28:46;;;;;;;30.60;18.40;;;;;;;7.26;75.35;99340.95;106313;1256;59510;-79
2023/12/30 09:31:15;;;;;;;24.60;17.00;;;;;;;7.31;75.02;99342.35;105734;1262;73129;-80
2023/12/30 09:33:43;;;;;;;28.70;17.60;;;;;;;7.39;74.84;99342.98;106345;1254;68866;-80
2023/12/30 09:36:15;;;;;;;28.70;18.70;;;;;;;7.50;74.40;99339.24;107122;1254;72667;-83
2023/12/30 09:38:46;;;;;;;27.90;17.60;;;;;;;7.50;74.28;99340.67;107486;1259;59672;-80
2023/12/30 09:41:16;;;;;;;39.70;24.30;;;;;;;7.46;74.47;99339.60;107516;1256;59605;-81
2023/12/30 09:43:46;;;;;;;31.90;18.90;;;;;;;7.43;74.57;99340.05;107714;1253;72373;-84
2023/12/30 09:46:14;;;;;;;24.90;15.00;;;;;;;7.44;74.75;99327.96;108451;1254;71174;-77
2023/12/30 09:48:42;;;;;;;29.30;20.60;;;;;;;7.54;74.45;99326.77;107204;1254;70578;-78
2023/12/30 09:51:10;;;;;;;19.40;14.00;;;;;;;7.57;74.15;99322.21;106565;1254;60068;-78
2023/12/30 09:53:38;;;;;;;17.00;12.90;;;;;;;7.55;73.95;99324.71;106866;1254;59482;-78
2023/12/30 09:56:07;;;;;;;17.80;13.40;;;;;;;7.56;74.33;99320.45;107146;1254;71766;-79
2023/12/30 09:58:35;;;;;;;16.40;12.10;;;;;;;7.58;74.10;99323.36;107145;1254;71222;-80
2023/12/30 10:01:04;;;;;;;16.70;11.80;;;;;;;7.68;73.97;99322.67;106148;1255;72206;-77
2023/12/30 10:03:36;;;;;;;15.70;12.20;;;;;;;7.77;73.44;99331.33;106354;1254;60084;-80
2023/12/30 10:06:04;;;;;;;17.90;14.30;;;;;;;7.76;73.38;99326.64;106148;1254;60335;-79
2023/12/30 10:08:32;;;;;;;17.00;12.30;;;;;;;7.73;73.33;99323.65;106096;1256;73105;-82
2023/12/30 10:11:00;;;;;;;16.50;12.00;;;;;;;7.70;73.77;99317.71;106401;1254;68914;-83
2023/12/30 10:13:28;;;;;;;16.00;11.90;;;;;;;7.70;73.88;99321.83;106041;1260;71105;-82
2023/12/30 10:15:58;;;;;;;19.70;14.30;;;;;;;7.82;73.47;99322.48;106081;1262;61262;-80
2023/12/30 10:18:26;;;;;;;19.40;14.40;;;;;;;7.90;73.41;99320.46;106073;1254;61488;-81
2023/12/30 10:20:55;;;;;;;19.90;14.10;;;;;;;7.95;73.20;99312.70;106185;1259;72625;-84
2023/12/30 10:23:24;;;;;;;18.50;13.70;;;;;;;8.00;72.70;99310.99;107010;1254;72733;-83
2023/12/30 10:25:52;;;;;;;17.60;13.10;;;;;;;8.05;72.90;99300.33;106951;1256;71926;-81
2023/12/30 10:28:20;;;;;;;20.30;14.20;;;;;;;8.07;72.88;99299.41;107320;1254;60058;-81
2023/12/30 10:30:58;;;;;;;17.30;13.80;;;;;;;8.14;72.57;99304.81;107250;1254;59547;-81
2023/12/30 10:33:26;;;;;;;15.40;12.90;;;;;;;8.28;72.23;99299.34;107938;1256;71812;-83
2023/12/30 10:35:55;;;;;;;18.20;12.60;;;;;;;8.28;72.15;99300.86;107634;1254;71463;-82
2023/12/30 10:38:23;;;;;;;20.70;12.90;;;;;;;8.24;72.02;99298.64;108304;1254;71423;-83
2023/12/30 10:40:50;;;;;;;15.60;11.60;;;;;;;8.21;72.27;99295.05;108476;1256;59632;-82
2023/12/30 10:43:22;;;;;;;17.20;12.20;;;;;;;8.16;72.03;99299.81;108169;1254;59634;-83
2023/12/30 10:46:03;;;;;;;15.80;11.40;;;;;;;8.13;72.08;99303.22;107398;1256;71771;-85
2023/12/30 10:48:32;;;;;;;14.70;11.00;;;;;;;8.14;72.22;99292.17;109141;1254;69046;-82
2023/12/30 10:51:01;;;;;;;15.90;11.40;;;;;;;8.16;71.73;99300.87;108759;1255;71508;-82
2023/12/30 10:53:39;;;;;;;14.10;10.40;;;;;;;8.12;72.00;99299.45;108661;1254;60761;-81
2023/12/30 10:56:09;;;;;;;14.10;11.50;;;;;;;8.04;72.15;99287.69;108617;1254;59248;-82
2023/12/30 10:58:37;;;;;;;14.70;11.60;;;;;;;7.99;72.45;99285.08;108521;1254;72846;-81
2023/12/30 11:01:05;;;;;;;13.10;10.10;;;;;;;7.95;72.78;99286.25;108610;1255;68723;-83
2023/12/30 11:03:33;;;;;;;12.70;10.30;;;;;;;7.97;72.53;99284.94;108875;1254;71080;-82
2023/12/30 11:06:26;;;;;;;21.30;14.30;;;;;;;8.01;72.35;99281.73;108706;1253;60916;-80
2023/12/30 11:09:14;;;;;;;17.50;13.30;;;;;;;7.96;72.58;99268.06;108726;1257;58896;-79
2023/12/30 11:11:51;;;;;;;19.30;13.50;;;;;;;7.93;72.88;99268.30;108369;1253;73998;-80
2023/12/30 11:14:19;;;;;;;20.00;13.90;;;;;;;7.90;72.79;99271.27;108202;1253;68725;-80
2023/12/30 11:16:50;;;;;;;16.70;11.70;;;;;;;7.89;73.06;99257.91;108942;1253;71394;-82
2023/12/30 11:19:31;;;;;;;18.30;13.40;;;;;;;7.97;72.64;99261.69;108834;1254;60464;-80
2023/12/30 11:22:00;;;;;;;16.00;13.00;;;;;;;8.01;72.33;99253.85;108840;1253;59284;-80
2023/12/30 11:24:29;;;;;;;15.90;12.70;;;;;;;7.98;72.68;99253.95;109144;1254;71857;-81
2023/12/30 11:26:56;;;;;;;17.60;13.90;;;;;;;7.95;72.59;99248.47;108797;1253;69120;-80